sensor_id;sensor_type;location;lat;lon;timestamp;pressure;altitude;pressure_sealevel;temperature;humidity
11525;BME280;5819;49.648;8.330;2023-07-02T00:00:28;99744.28;;;16.96;89.56
11525;BME280;5819;49.648;8.330;2023-07-02T00:02:56;99733.66;;;17.09;87.78
11525;BME280;5819;49.648;8.330;2023-07-02T00:05:24;99730.41;;;17.05;88.07
11525;BME280;5819;49.648;8.330;2023-07-02T00:07:53;99737.69;;;17.02;88.23
11525;BME280;5819;49.648;8.330;2023-07-02T00:10:21;99744.03;;;16.99;88.82
11525;BME280;5819;49.648;8.330;2023-07-02T00:12:49;99751.94;;;16.99;88.82
11525;BME280;5819;49.648;8.330;2023-07-02T00:15:17;99746.91;;;17.07;88.23
11525;BME280;5819;49.648;8.330;2023-07-02T00:17:46;99741.41;;;17.10;88.12
11525;BME280;5819;49.648;8.330;2023-07-02T00:20:14;99750.13;;;17.11;87.79
11525;BME280;5819;49.648;8.330;2023-07-02T00:22:44;99742.00;;;17.14;87.35
11525;BME280;5819;49.648;8.330;2023-07-02T00:25:13;99750.94;;;17.22;84.75
11525;BME280;5819;49.648;8.330;2023-07-02T00:27:41;99755.13;;;17.14;85.59
11525;BME280;5819;49.648;8.330;2023-07-02T00:30:10;99755.34;;;17.22;84.77
11525;BME280;5819;49.648;8.330;2023-07-02T00:32:37;99751.09;;;17.21;84.67
11525;BME280;5819;49.648;8.330;2023-07-02T00:35:07;99759.44;;;17.15;84.60
11525;BME280;5819;49.648;8.330;2023-07-02T00:37:35;99761.47;;;17.11;85.19
11525;BME280;5819;49.648;8.330;2023-07-02T00:40:05;99761.81;;;17.18;84.40
11525;BME280;5819;49.648;8.330;2023-07-02T00:42:33;99764.69;;;17.15;84.95
11525;BME280;5819;49.648;8.330;2023-07-02T00:45:00;99759.53;;;17.13;85.71
11525;BME280;5819;49.648;8.330;2023-07-02T00:47:30;99758.25;;;17.08;85.89
11525;BME280;5819;49.648;8.330;2023-07-02T00:50:01;99770.56;;;16.96;86.09
11525;BME280;5819;49.648;8.330;2023-07-02T00:52:30;99769.25;;;16.91;86.16
11525;BME280;5819;49.648;8.330;2023-07-02T00:54:58;99767.44;;;16.91;86.69
11525;BME280;5819;49.648;8.330;2023-07-02T00:57:26;99776.78;;;16.84;87.61
11525;BME280;5819;49.648;8.330;2023-07-02T00:59:57;99775.09;;;16.83;87.69
11525;BME280;5819;49.648;8.330;2023-07-02T01:02:27;99774.84;;;16.75;88.32
11525;BME280;5819;49.648;8.330;2023-07-02T01:04:57;99762.56;;;16.75;88.56
11525;BME280;5819;49.648;8.330;2023-07-02T01:07:27;99769.84;;;16.61;89.60
11525;BME280;5819;49.648;8.330;2023-07-02T01:09:57;99772.53;;;16.48;90.70
11525;BME280;5819;49.648;8.330;2023-07-02T01:12:25;99769.47;;;16.30;91.96
11525;BME280;5819;49.648;8.330;2023-07-02T01:14:56;99776.13;;;16.12;93.25
11525;BME280;5819;49.648;8.330;2023-07-02T01:17:27;99773.44;;;16.01;94.36
11525;BME280;5819;49.648;8.330;2023-07-02T01:20:07;99778.31;;;15.95;95.30
11525;BME280;5819;49.648;8.330;2023-07-02T01:22:35;99778.88;;;15.87;96.68
11525;BME280;5819;49.648;8.330;2023-07-02T01:25:04;99781.25;;;15.90;96.72
11525;BME280;5819;49.648;8.330;2023-07-02T01:27:36;99781.16;;;15.91;96.51
11525;BME280;5819;49.648;8.330;2023-07-02T01:30:07;99781.03;;;15.93;97.13
11525;BME280;5819;49.648;8.330;2023-07-02T01:32:37;99777.47;;;15.94;97.33
11525;BME280;5819;49.648;8.330;2023-07-02T01:35:07;99775.53;;;16.20;96.13
11525;BME280;5819;49.648;8.330;2023-07-02T01:37:36;99769.47;;;16.30;94.92
11525;BME280;5819;49.648;8.330;2023-07-02T01:40:06;99770.63;;;16.15;96.13
11525;BME280;5819;49.648;8.330;2023-07-02T01:42:35;99767.53;;;16.21;95.16
11525;BME280;5819;49.648;8.330;2023-07-02T01:45:04;99771.31;;;16.06;96.29
11525;BME280;5819;49.648;8.330;2023-07-02T01:47:31;99780.31;;;15.91;97.45
11525;BME280;5819;49.648;8.330;2023-07-02T01:50:03;99786.19;;;15.95;97.95
11525;BME280;5819;49.648;8.330;2023-07-02T01:52:33;99795.41;;;16.00;96.89
11525;BME280;5819;49.648;8.330;2023-07-02T01:55:02;99791.31;;;15.96;95.97
11525;BME280;5819;49.648;8.330;2023-07-02T01:57:30;99789.25;;;15.88;96.79
11525;BME280;5819;49.648;8.330;2023-07-02T01:59:58;99785.72;;;15.77;97.75
11525;BME280;5819;49.648;8.330;2023-07-02T02:02:26;99788.84;;;15.82;98.66
11525;BME280;5819;49.648;8.330;2023-07-02T02:04:54;99792.97;;;15.73;98.62
11525;BME280;5819;49.648;8.330;2023-07-02T02:07:23;99796.28;;;15.64;100.00
11525;BME280;5819;49.648;8.330;2023-07-02T02:09:54;99796.63;;;15.60;100.00
11525;BME280;5819;49.648;8.330;2023-07-02T02:12:21;99798.91;;;15.64;100.00
11525;BME280;5819;49.648;8.330;2023-07-02T02:14:49;99802.34;;;15.65;100.00
11525;BME280;5819;49.648;8.330;2023-07-02T02:17:17;99800.38;;;15.68;100.00
11525;BME280;5819;49.648;8.330;2023-07-02T02:19:45;99806.88;;;15.63;100.00
11525;BME280;5819;49.648;8.330;2023-07-02T02:22:13;99811.72;;;15.56;100.00
11525;BME280;5819;49.648;8.330;2023-07-02T02:24:41;99810.28;;;15.52;100.00
11525;BME280;5819;49.648;8.330;2023-07-02T02:27:10;99806.81;;;15.39;100.00
11525;BME280;5819;49.648;8.330;2023-07-02T02:29:38;99820.25;;;15.34;100.00
11525;BME280;5819;49.648;8.330;2023-07-02T02:32:07;99816.78;;;15.34;99.68
11525;BME280;5819;49.648;8.330;2023-07-02T02:34:36;99819.72;;;15.17;99.42
11525;BME280;5819;49.648;8.330;2023-07-02T02:37:04;99815.34;;;15.05;100.00
11525;BME280;5819;49.648;8.330;2023-07-02T02:39:32;99815.56;;;15.14;100.00
11525;BME280;5819;49.648;8.330;2023-07-02T02:42:02;99811.78;;;15.18;100.00
11525;BME280;5819;49.648;8.330;2023-07-02T02:44:31;99822.25;;;15.18;100.00
11525;BME280;5819;49.648;8.330;2023-07-02T02:46:59;99818.06;;;15.16;100.00
11525;BME280;5819;49.648;8.330;2023-07-02T02:49:29;99815.25;;;15.19;100.00
11525;BME280;5819;49.648;8.330;2023-07-02T02:51:56;99811.38;;;15.12;100.00
11525;BME280;5819;49.648;8.330;2023-07-02T02:54:25;99816.19;;;14.92;100.00
11525;BME280;5819;49.648;8.330;2023-07-02T02:56:52;99815.78;;;14.86;100.00
11525;BME280;5819;49.648;8.330;2023-07-02T02:59:20;99822.69;;;14.74;100.00
11525;BME280;5819;49.648;8.330;2023-07-02T03:01:50;99822.78;;;14.73;100.00
11525;BME280;5819;49.648;8.330;2023-07-02T03:04:18;99819.53;;;14.69;100.00
11525;BME280;5819;49.648;8.330;2023-07-02T03:06:51;99821.97;;;14.72;100.00
11525;BME280;5819;49.648;8.330;2023-07-02T03:09:19;99815.78;;;14.73;100.00
11525;BME280;5819;49.648;8.330;2023-07-02T03:11:47;99815.91;;;14.72;100.00
11525;BME280;5819;49.648;8.330;2023-07-02T03:14:16;99815.28;;;14.68;100.00
11525;BME280;5819;49.648;8.330;2023-07-02T03:16:44;99813.56;;;14.55;100.00
11525;BME280;5819;49.648;8.330;2023-07-02T03:19:14;99819.03;;;14.25;100.00
11525;BME280;5819;49.648;8.330;2023-07-02T03:21:43;99823.63;;;14.21;100.00
11525;BME280;5819;49.648;8.330;2023-07-02T03:24:11;99830.53;;;14.22;100.00
11525;BME280;5819;49.648;8.330;2023-07-02T03:26:40;99824.84;;;14.03;100.00
11525;BME280;5819;49.648;8.330;2023-07-02T03:29:08;99824.88;;;13.89;100.00
11525;BME280;5819;49.648;8.330;2023-07-02T03:31:37;99833.19;;;13.95;100.00
11525;BME280;5819;49.648;8.330;2023-07-02T03:34:07;99831.28;;;13.97;100.00
11525;BME280;5819;49.648;8.330;2023-07-02T03:36:37;99828.44;;;14.15;100.00
11525;BME280;5819;49.648;8.330;2023-07-02T03:39:05;99829.31;;;14.28;100.00
11525;BME280;5819;49.648;8.330;2023-07-02T03:41:36;99825.44;;;14.33;100.00
11525;BME280;5819;49.648;8.330;2023-07-02T03:44:05;99833.50;;;14.30;100.00
11525;BME280;5819;49.648;8.330;2023-07-02T03:46:33;99827.34;;;14.31;100.00
11525;BME280;5819;49.648;8.330;2023-07-02T03:49:01;99825.00;;;14.27;100.00
11525;BME280;5819;49.648;8.330;2023-07-02T03:51:30;99830.53;;;14.22;100.00
11525;BME280;5819;49.648;8.330;2023-07-02T03:53:59;99827.34;;;14.31;100.00
11525;BME280;5819;49.648;8.330;2023-07-02T03:56:27;99827.41;;;14.30;100.00
11525;BME280;5819;49.648;8.330;2023-07-02T03:58:55;99834.34;;;14.31;100.00
11525;BME280;5819;49.648;8.330;2023-07-02T04:01:23;99834.53;;;14.28;100.00
11525;BME280;5819;49.648;8.330;2023-07-02T04:03:51;99836.63;;;14.23;100.00
11525;BME280;5819;49.648;8.330;2023-07-02T04:06:20;99840.16;;;14.22;100.00
11525;BME280;5819;49.648;8.330;2023-07-02T04:08:48;99843.88;;;14.32;100.00
11525;BME280;5819;49.648;8.330;2023-07-02T04:11:17;99845.16;;;14.39;100.00
11525;BME280;5819;49.648;8.330;2023-07-02T04:13:45;99846.66;;;14.43;100.00
11525;BME280;5819;49.648;8.330;2023-07-02T04:16:13;99858.69;;;14.45;100.00
11525;BME280;5819;49.648;8.330;2023-07-02T04:18:41;99851.75;;;14.44;100.00
11525;BME280;5819;49.648;8.330;2023-07-02T04:21:09;99857.00;;;14.44;100.00
11525;BME280;5819;49.648;8.330;2023-07-02T04:23:36;99862.13;;;14.46;100.00
11525;BME280;5819;49.648;8.330;2023-07-02T04:26:05;99862.13;;;14.46;100.00
11525;BME280;5819;49.648;8.330;2023-07-02T04:28:54;99862.69;;;14.51;100.00
11525;BME280;5819;49.648;8.330;2023-07-02T04:31:23;99860.78;;;14.53;100.00
11525;BME280;5819;49.648;8.330;2023-07-02T04:33:51;99865.94;;;14.55;100.00
11525;BME280;5819;49.648;8.330;2023-07-02T04:36:18;99874.53;;;14.69;100.00
11525;BME280;5819;49.648;8.330;2023-07-02T04:38:46;99873.38;;;14.73;100.00
11525;BME280;5819;49.648;8.330;2023-07-02T04:41:14;99877.59;;;14.76;100.00
11525;BME280;5819;49.648;8.330;2023-07-02T04:43:42;99876.97;;;14.72;100.00
11525;BME280;5819;49.648;8.330;2023-07-02T04:46:13;99870.66;;;14.75;100.00
11525;BME280;5819;49.648;8.330;2023-07-02T04:48:41;99870.03;;;14.96;100.00
11525;BME280;5819;49.648;8.330;2023-07-02T04:51:08;99871.50;;;15.13;100.00
11525;BME280;5819;49.648;8.330;2023-07-02T04:53:37;99868.34;;;15.33;99.92
11525;BME280;5819;49.648;8.330;2023-07-02T04:56:05;99868.47;;;15.44;99.29
11525;BME280;5819;49.648;8.330;2023-07-02T04:58:34;99868.88;;;15.64;98.95
11525;BME280;5819;49.648;8.330;2023-07-02T05:01:02;99872.91;;;15.80;98.90
11525;BME280;5819;49.648;8.330;2023-07-02T05:03:32;99873.06;;;15.90;98.78
11525;BME280;5819;49.648;8.330;2023-07-02T05:06:01;99876.88;;;16.10;97.06
11525;BME280;5819;49.648;8.330;2023-07-02T05:08:29;99878.00;;;16.18;95.79
11525;BME280;5819;49.648;8.330;2023-07-02T05:10:57;99883.63;;;16.25;95.12
11525;BME280;5819;49.648;8.330;2023-07-02T05:13:24;99880.22;;;16.35;94.34
11525;BME280;5819;49.648;8.330;2023-07-02T05:15:53;99885.75;;;16.44;92.90
11525;BME280;5819;49.648;8.330;2023-07-02T05:18:21;99894.44;;;16.57;91.79
11525;BME280;5819;49.648;8.330;2023-07-02T05:20:50;99894.34;;;16.69;90.90
11525;BME280;5819;49.648;8.330;2023-07-02T05:23:18;99900.25;;;16.84;90.60
11525;BME280;5819;49.648;8.330;2023-07-02T05:25:46;99885.09;;;16.99;89.01
11525;BME280;5819;49.648;8.330;2023-07-02T05:28:14;99890.16;;;17.13;88.41
11525;BME280;5819;49.648;8.330;2023-07-02T05:30:41;99891.34;;;17.09;88.00
11525;BME280;5819;49.648;8.330;2023-07-02T05:33:09;99885.00;;;17.33;87.09
11525;BME280;5819;49.648;8.330;2023-07-02T05:35:37;99891.59;;;17.50;85.46
11525;BME280;5819;49.648;8.330;2023-07-02T05:38:06;99881.09;;;17.17;85.26
11525;BME280;5819;49.648;8.330;2023-07-02T05:40:34;99886.34;;;17.28;85.82
11525;BME280;5819;49.648;8.330;2023-07-02T05:43:02;99875.34;;;17.67;82.37
11525;BME280;5819;49.648;8.330;2023-07-02T05:45:30;99884.44;;;17.52;82.03
11525;BME280;5819;49.648;8.330;2023-07-02T05:47:58;99883.00;;;17.48;82.59
11525;BME280;5819;49.648;8.330;2023-07-02T05:50:26;99880.97;;;17.52;82.28
11525;BME280;5819;49.648;8.330;2023-07-02T05:52:54;99884.06;;;17.57;81.33
11525;BME280;5819;49.648;8.330;2023-07-02T05:55:24;99883.47;;;17.42;81.08
11525;BME280;5819;49.648;8.330;2023-07-02T05:57:52;99883.56;;;17.29;81.78
11525;BME280;5819;49.648;8.330;2023-07-02T06:00:25;99871.75;;;17.35;81.39
11525;BME280;5819;49.648;8.330;2023-07-02T06:02:55;99877.72;;;17.26;81.89
11525;BME280;5819;49.648;8.330;2023-07-02T06:05:26;99878.44;;;17.28;80.71
11525;BME280;5819;49.648;8.330;2023-07-02T06:07:57;99875.59;;;17.64;79.87
11525;BME280;5819;49.648;8.330;2023-07-02T06:10:28;99880.38;;;17.59;80.13
11525;BME280;5819;49.648;8.330;2023-07-02T06:12:58;99885.75;;;17.80;79.99
11525;BME280;5819;49.648;8.330;2023-07-02T06:15:27;99874.09;;;17.94;79.42
11525;BME280;5819;49.648;8.330;2023-07-02T06:17:57;99886.28;;;18.06;79.45
11525;BME280;5819;49.648;8.330;2023-07-02T06:20:29;99882.56;;;18.08;77.85
11525;BME280;5819;49.648;8.330;2023-07-02T06:22:58;99888.78;;;18.07;77.91
11525;BME280;5819;49.648;8.330;2023-07-02T06:25:31;99884.44;;;18.29;75.95
11525;BME280;5819;49.648;8.330;2023-07-02T06:28:02;99884.59;;;18.48;75.46
11525;BME280;5819;49.648;8.330;2023-07-02T06:30:33;99881.00;;;18.49;73.28
11525;BME280;5819;49.648;8.330;2023-07-02T06:33:03;99870.53;;;19.00;71.83
11525;BME280;5819;49.648;8.330;2023-07-02T06:35:33;99877.03;;;18.96;70.75
11525;BME280;5819;49.648;8.330;2023-07-02T06:38:03;99875.28;;;19.06;70.76
11525;BME280;5819;49.648;8.330;2023-07-02T06:40:34;99869.63;;;19.10;69.28
11525;BME280;5819;49.648;8.330;2023-07-02T06:43:04;99875.63;;;19.43;69.01
11525;BME280;5819;49.648;8.330;2023-07-02T06:45:35;99869.19;;;19.66;67.45
11525;BME280;5819;49.648;8.330;2023-07-02T06:48:05;99867.13;;;19.70;66.13
11525;BME280;5819;49.648;8.330;2023-07-02T06:50:35;99871.75;;;19.77;65.92
11525;BME280;5819;49.648;8.330;2023-07-02T06:53:03;99871.03;;;19.66;66.02
11525;BME280;5819;49.648;8.330;2023-07-02T06:55:34;99875.75;;;19.72;66.23
11525;BME280;5819;49.648;8.330;2023-07-02T06:58:04;99880.06;;;19.82;64.90
11525;BME280;5819;49.648;8.330;2023-07-02T07:00:35;99875.00;;;19.60;65.64
11525;BME280;5819;49.648;8.330;2023-07-02T07:03:04;99867.66;;;19.63;64.80
11525;BME280;5819;49.648;8.330;2023-07-02T07:05:34;99873.59;;;19.56;65.31
11525;BME280;5819;49.648;8.330;2023-07-02T07:08:04;99877.78;;;19.58;64.84
11525;BME280;5819;49.648;8.330;2023-07-02T07:10:36;99873.59;;;19.56;64.58
11525;BME280;5819;49.648;8.330;2023-07-02T07:13:05;99882.63;;;19.53;63.77
11525;BME280;5819;49.648;8.330;2023-07-02T07:15:38;99864.72;;;19.57;63.67
11525;BME280;5819;49.648;8.330;2023-07-02T07:18:08;99871.44;;;19.71;63.26
11525;BME280;5819;49.648;8.330;2023-07-02T07:20:39;99864.25;;;19.92;61.77
11525;BME280;5819;49.648;8.330;2023-07-02T07:23:09;99862.31;;;20.03;62.04
11525;BME280;5819;49.648;8.330;2023-07-02T07:25:38;99866.78;;;20.22;61.93
11525;BME280;5819;49.648;8.330;2023-07-02T07:28:07;99853.44;;;20.14;60.86
11525;BME280;5819;49.648;8.330;2023-07-02T07:30:38;99854.56;;;20.12;60.75
11525;BME280;5819;49.648;8.330;2023-07-02T07:33:06;99862.72;;;19.99;60.70
11525;BME280;5819;49.648;8.330;2023-07-02T07:35:34;99853.56;;;20.22;60.27
11525;BME280;5819;49.648;8.330;2023-07-02T07:38:03;99857.38;;;20.29;60.50
11525;BME280;5819;49.648;8.330;2023-07-02T07:40:31;99856.97;;;20.43;59.82
11525;BME280;5819;49.648;8.330;2023-07-02T07:43:00;99860.03;;;20.48;59.22
11525;BME280;5819;49.648;8.330;2023-07-02T07:45:28;99853.28;;;20.83;58.52
11525;BME280;5819;49.648;8.330;2023-07-02T07:47:56;99852.84;;;20.87;58.16
11525;BME280;5819;49.648;8.330;2023-07-02T07:50:23;99846.84;;;20.95;58.20
11525;BME280;5819;49.648;8.330;2023-07-02T07:52:52;99857.84;;;21.00;57.84
11525;BME280;5819;49.648;8.330;2023-07-02T07:55:22;99850.03;;;21.08;57.01
11525;BME280;5819;49.648;8.330;2023-07-02T07:57:52;99843.59;;;21.57;57.03
11525;BME280;5819;49.648;8.330;2023-07-02T08:00:23;99841.06;;;21.56;56.62
11525;BME280;5819;49.648;8.330;2023-07-02T08:02:54;99850.78;;;21.65;56.94
11525;BME280;5819;49.648;8.330;2023-07-02T08:05:24;99844.09;;;21.88;54.89
11525;BME280;5819;49.648;8.330;2023-07-02T08:07:54;99846.34;;;21.92;55.19
11525;BME280;5819;49.648;8.330;2023-07-02T08:10:25;99849.91;;;21.74;55.88
11525;BME280;5819;49.648;8.330;2023-07-02T08:12:55;99856.09;;;21.65;55.99
11525;BME280;5819;49.648;8.330;2023-07-02T08:15:26;99852.25;;;21.77;56.72
11525;BME280;5819;49.648;8.330;2023-07-02T08:17:56;99858.78;;;21.82;55.69
11525;BME280;5819;49.648;8.330;2023-07-02T08:20:26;99862.31;;;21.91;55.27
11525;BME280;5819;49.648;8.330;2023-07-02T08:22:56;99866.81;;;21.63;55.71
11525;BME280;5819;49.648;8.330;2023-07-02T08:25:26;99862.00;;;21.76;55.53
11525;BME280;5819;49.648;8.330;2023-07-02T08:27:56;99860.56;;;21.91;55.24
11525;BME280;5819;49.648;8.330;2023-07-02T08:30:27;99863.00;;;21.75;56.20
11525;BME280;5819;49.648;8.330;2023-07-02T08:32:56;99864.44;;;22.15;55.74
11525;BME280;5819;49.648;8.330;2023-07-02T08:35:26;99851.94;;;22.07;54.93
11525;BME280;5819;49.648;8.330;2023-07-02T08:37:56;99853.09;;;22.22;53.46
11525;BME280;5819;49.648;8.330;2023-07-02T08:40:26;99869.97;;;22.39;52.15
11525;BME280;5819;49.648;8.330;2023-07-02T08:42:56;99870.03;;;22.47;52.20
11525;BME280;5819;49.648;8.330;2023-07-02T08:45:30;99866.31;;;22.05;53.50
11525;BME280;5819;49.648;8.330;2023-07-02T08:48:00;99862.69;;;22.76;52.72
11525;BME280;5819;49.648;8.330;2023-07-02T08:50:30;99863.06;;;22.81;52.09
11525;BME280;5819;49.648;8.330;2023-07-02T08:53:00;99859.66;;;22.71;52.10
11525;BME280;5819;49.648;8.330;2023-07-02T08:55:30;99874.03;;;22.87;52.19
11525;BME280;5819;49.648;8.330;2023-07-02T08:57:59;99871.94;;;22.55;51.70
11525;BME280;5819;49.648;8.330;2023-07-02T09:00:31;99871.22;;;22.88;51.01
11525;BME280;5819;49.648;8.330;2023-07-02T09:03:12;99865.72;;;23.41;50.46
11525;BME280;5819;49.648;8.330;2023-07-02T09:05:51;99869.09;;;23.85;49.04
11525;BME280;5819;49.648;8.330;2023-07-02T09:08:24;99863.38;;;23.72;48.78
11525;BME280;5819;49.648;8.330;2023-07-02T09:10:53;99869.25;;;23.16;49.59
11525;BME280;5819;49.648;8.330;2023-07-02T09:13:23;99881.09;;;23.55;48.44
11525;BME280;5819;49.648;8.330;2023-07-02T09:15:55;99881.25;;;23.28;49.25
11525;BME280;5819;49.648;8.330;2023-07-02T09:18:24;99894.44;;;22.51;49.79
11525;BME280;5819;49.648;8.330;2023-07-02T09:20:54;99869.22;;;23.42;47.98
11525;BME280;5819;49.648;8.330;2023-07-02T09:23:33;99853.41;;;24.73;45.94
11525;BME280;5819;49.648;8.330;2023-07-02T09:26:04;99869.75;;;23.95;48.05
11525;BME280;5819;49.648;8.330;2023-07-02T09:28:35;99909.38;;;22.69;51.58
11525;BME280;5819;49.648;8.330;2023-07-02T09:31:06;99891.78;;;23.71;48.79
11525;BME280;5819;49.648;8.330;2023-07-02T09:33:35;99885.47;;;24.14;47.12
11525;BME280;5819;49.648;8.330;2023-07-02T09:36:05;99880.22;;;24.95;46.50
11525;BME280;5819;49.648;8.330;2023-07-02T09:38:35;99870.16;;;25.30;45.78
11525;BME280;5819;49.648;8.330;2023-07-02T09:41:07;99880.47;;;25.33;44.78
11525;BME280;5819;49.648;8.330;2023-07-02T09:43:37;99869.91;;;25.94;45.28
11525;BME280;5819;49.648;8.330;2023-07-02T09:46:08;99863.25;;;25.51;43.22
11525;BME280;5819;49.648;8.330;2023-07-02T09:48:36;99852.19;;;26.32;41.65
11525;BME280;5819;49.648;8.330;2023-07-02T09:51:04;99839.25;;;27.48;39.77
11525;BME280;5819;49.648;8.330;2023-07-02T09:53:32;99863.66;;;25.24;42.65
11525;BME280;5819;49.648;8.330;2023-07-02T09:56:01;99889.53;;;24.51;45.00
11525;BME280;5819;49.648;8.330;2023-07-02T09:58:31;99844.25;;;27.87;39.38
11525;BME280;5819;49.648;8.330;2023-07-02T10:01:00;99826.09;;;28.67;37.12
11525;BME280;5819;49.648;8.330;2023-07-02T10:03:33;99855.44;;;27.97;37.66
11525;BME280;5819;49.648;8.330;2023-07-02T10:06:05;99848.81;;;27.28;38.34
11525;BME280;5819;49.648;8.330;2023-07-02T10:08:34;99869.09;;;26.85;39.65
11525;BME280;5819;49.648;8.330;2023-07-02T10:11:08;99827.44;;;29.40;35.05
11525;BME280;5819;49.648;8.330;2023-07-02T10:13:38;99852.59;;;27.04;38.60
11525;BME280;5819;49.648;8.330;2023-07-02T10:16:08;99886.53;;;24.70;43.03
11525;BME280;5819;49.648;8.330;2023-07-02T10:18:39;99892.00;;;24.52;43.96
11525;BME280;5819;49.648;8.330;2023-07-02T10:21:16;99895.13;;;24.40;44.88
11525;BME280;5819;49.648;8.330;2023-07-02T10:23:46;99897.13;;;24.21;45.38
11525;BME280;5819;49.648;8.330;2023-07-02T10:26:17;99879.25;;;26.21;42.25
11525;BME280;5819;49.648;8.330;2023-07-02T10:28:57;99837.09;;;28.72;37.51
11525;BME280;5819;49.648;8.330;2023-07-02T10:31:27;99817.81;;;29.52;36.04
11525;BME280;5819;49.648;8.330;2023-07-02T10:33:59;99820.28;;;30.34;34.47
11525;BME280;5819;49.648;8.330;2023-07-02T10:36:30;99850.19;;;27.53;37.75
11525;BME280;5819;49.648;8.330;2023-07-02T10:39:02;99877.22;;;25.92;40.92
11525;BME280;5819;49.648;8.330;2023-07-02T10:41:34;99875.47;;;26.16;40.62
11525;BME280;5819;49.648;8.330;2023-07-02T10:44:09;99816.31;;;29.97;35.18
11525;BME280;5819;49.648;8.330;2023-07-02T10:46:45;99837.09;;;27.58;37.35
11525;BME280;5819;49.648;8.330;2023-07-02T10:49:18;99848.53;;;28.03;36.15
11525;BME280;5819;49.648;8.330;2023-07-02T10:51:57;99869.00;;;26.33;39.47
11525;BME280;5819;49.648;8.330;2023-07-02T10:54:39;99889.19;;;25.66;41.62
11525;BME280;5819;49.648;8.330;2023-07-02T10:57:10;99886.91;;;25.46;42.49
11525;BME280;5819;49.648;8.330;2023-07-02T10:59:40;99889.69;;;25.69;41.69
11525;BME280;5819;49.648;8.330;2023-07-02T11:02:10;99861.97;;;27.15;38.32
11525;BME280;5819;49.648;8.330;2023-07-02T11:04:42;99879.28;;;26.13;40.50
11525;BME280;5819;49.648;8.330;2023-07-02T11:07:14;99875.94;;;25.41;40.71
11525;BME280;5819;49.648;8.330;2023-07-02T11:09:50;99883.16;;;25.80;41.00
11525;BME280;5819;49.648;8.330;2023-07-02T11:12:27;99872.28;;;26.43;40.09
11525;BME280;5819;49.648;8.330;2023-07-02T11:15:07;99860.38;;;26.91;38.43
11525;BME280;5819;49.648;8.330;2023-07-02T11:17:37;99861.25;;;27.50;38.32
11525;BME280;5819;49.648;8.330;2023-07-02T11:20:11;99847.19;;;27.77;37.03
11525;BME280;5819;49.648;8.330;2023-07-02T11:22:42;99812.06;;;30.75;33.20
11525;BME280;5819;49.648;8.330;2023-07-02T11:25:15;99854.59;;;27.61;36.74
11525;BME280;5819;49.648;8.330;2023-07-02T11:27:46;99858.91;;;26.66;38.80
11525;BME280;5819;49.648;8.330;2023-07-02T11:30:15;99853.75;;;26.87;37.97
11525;BME280;5819;49.648;8.330;2023-07-02T11:32:50;99850.09;;;27.17;37.78
11525;BME280;5819;49.648;8.330;2023-07-02T11:35:33;99839.19;;;29.05;35.70
11525;BME280;5819;49.648;8.330;2023-07-02T11:38:03;99818.47;;;30.48;34.27
11525;BME280;5819;49.648;8.330;2023-07-02T11:40:34;99798.72;;;31.84;30.50
11525;BME280;5819;49.648;8.330;2023-07-02T11:43:03;99784.75;;;32.81;29.66
11525;BME280;5819;49.648;8.330;2023-07-02T11:45:33;99775.34;;;32.40;28.91
11525;BME280;5819;49.648;8.330;2023-07-02T11:48:03;99798.38;;;32.36;29.83
11525;BME280;5819;49.648;8.330;2023-07-02T11:50:34;99796.34;;;32.57;29.92
11525;BME280;5819;49.648;8.330;2023-07-02T11:53:04;99798.03;;;32.26;29.73
11525;BME280;5819;49.648;8.330;2023-07-02T11:55:34;99801.19;;;31.85;30.46
11525;BME280;5819;49.648;8.330;2023-07-02T11:58:05;99797.22;;;32.50;28.89
11525;BME280;5819;49.648;8.330;2023-07-02T12:00:34;99799.28;;;32.98;29.32
11525;BME280;5819;49.648;8.330;2023-07-02T12:03:03;99796.56;;;32.80;29.22
11525;BME280;5819;49.648;8.330;2023-07-02T12:05:34;99824.22;;;30.91;31.76
11525;BME280;5819;49.648;8.330;2023-07-02T12:08:04;99850.72;;;28.56;33.90
11525;BME280;5819;49.648;8.330;2023-07-02T12:10:35;99847.53;;;28.67;33.91
11525;BME280;5819;49.648;8.330;2023-07-02T12:13:05;99862.34;;;27.70;35.57
11525;BME280;5819;49.648;8.330;2023-07-02T12:15:35;99861.81;;;27.60;35.88
11525;BME280;5819;49.648;8.330;2023-07-02T12:18:05;99869.22;;;26.69;37.53
11525;BME280;5819;49.648;8.330;2023-07-02T12:20:36;99876.47;;;26.37;37.87
11525;BME280;5819;49.648;8.330;2023-07-02T12:23:05;99851.06;;;28.96;34.09
11525;BME280;5819;49.648;8.330;2023-07-02T12:25:33;99853.41;;;28.56;35.15
11525;BME280;5819;49.648;8.330;2023-07-02T12:28:02;99869.28;;;27.50;35.85
11525;BME280;5819;49.648;8.330;2023-07-02T12:30:30;99827.63;;;29.86;32.86
11525;BME280;5819;49.648;8.330;2023-07-02T12:32:58;99804.56;;;31.17;31.28
11525;BME280;5819;49.648;8.330;2023-07-02T12:35:27;99804.44;;;31.94;30.84
11525;BME280;5819;49.648;8.330;2023-07-02T12:37:57;99800.97;;;32.25;29.60
11525;BME280;5819;49.648;8.330;2023-07-02T12:40:25;99798.56;;;31.72;30.79
11525;BME280;5819;49.648;8.330;2023-07-02T12:42:53;99807.69;;;32.02;30.09
11525;BME280;5819;49.648;8.330;2023-07-02T12:45:22;99826.53;;;30.67;32.01
11525;BME280;5819;49.648;8.330;2023-07-02T12:47:50;99856.50;;;28.81;33.94
11525;BME280;5819;49.648;8.330;2023-07-02T12:50:18;99868.31;;;27.14;36.20
11525;BME280;5819;49.648;8.330;2023-07-02T12:52:46;99884.06;;;26.48;37.97
11525;BME280;5819;49.648;8.330;2023-07-02T12:55:16;99879.66;;;27.45;36.80
11525;BME280;5819;49.648;8.330;2023-07-02T12:57:47;99850.53;;;29.41;33.96
11525;BME280;5819;49.648;8.330;2023-07-02T13:00:18;99840.38;;;30.51;33.11
11525;BME280;5819;49.648;8.330;2023-07-02T13:02:48;99829.72;;;31.35;32.02
11525;BME280;5819;49.648;8.330;2023-07-02T13:05:31;99835.06;;;31.55;31.26
11525;BME280;5819;49.648;8.330;2023-07-02T13:08:00;99857.34;;;28.60;33.70
11525;BME280;5819;49.648;8.330;2023-07-02T13:10:32;99878.72;;;27.82;36.13
11525;BME280;5819;49.648;8.330;2023-07-02T13:13:03;99861.81;;;28.74;34.56
11525;BME280;5819;49.648;8.330;2023-07-02T13:15:48;99862.53;;;28.05;35.21
11525;BME280;5819;49.648;8.330;2023-07-02T13:18:20;99855.91;;;28.15;34.89
11525;BME280;5819;49.648;8.330;2023-07-02T13:20:50;99864.56;;;28.03;35.62
11525;BME280;5819;49.648;8.330;2023-07-02T13:23:20;99871.94;;;27.50;35.87